createdAt,value
2022-08-11T00:01:15.398Z,5.50
2022-08-11T00:03:48.551Z,5.50
2022-08-11T00:06:27.053Z,5.10
2022-08-11T00:08:58.040Z,5.40
2022-08-11T00:11:37.073Z,4.70
2022-08-11T00:14:16.357Z,5.40
2022-08-11T00:16:54.933Z,5.40
2022-08-11T00:20:11.883Z,5.40
2022-08-11T00:22:23.748Z,5.40
2022-08-11T00:24:58.561Z,5.10
2022-08-11T00:27:39.794Z,5.30
2022-08-11T00:30:13.469Z,5.00
2022-08-11T00:32:47.531Z,6.20
2022-08-11T00:35:55.337Z,5.60
2022-08-11T00:38:09.956Z,5.20
2022-08-11T00:40:45.636Z,5.20
2022-08-11T00:43:23.701Z,5.70
2022-08-11T00:46:11.803Z,5.10
2022-08-11T00:48:51.414Z,5.40
2022-08-11T00:52:04.571Z,4.80
2022-08-11T00:55:00.146Z,4.70
2022-08-11T00:58:00.705Z,5.90
2022-08-11T01:00:41.744Z,5.60
2022-08-11T01:03:33.387Z,5.00
2022-08-11T01:06:32.816Z,4.90
2022-08-11T01:09:32.310Z,5.00
2022-08-11T01:12:20.033Z,4.90
2022-08-11T01:15:29.033Z,5.50
2022-08-11T01:18:32.956Z,4.80
2022-08-11T01:21:14.036Z,5.20
2022-08-11T01:24:19.836Z,5.00
2022-08-11T01:27:18.930Z,5.10
2022-08-11T01:30:19.716Z,5.10
2022-08-11T01:33:36.532Z,5.00
2022-08-11T01:36:53.618Z,4.90
2022-08-11T01:40:02.771Z,5.00
2022-08-11T01:43:26.466Z,4.80
2022-08-11T01:46:00.309Z,5.10
2022-08-11T01:48:42.680Z,5.10
2022-08-11T01:51:24.793Z,4.90
2022-08-11T01:53:58.354Z,5.10
2022-08-11T01:56:36.780Z,5.40
2022-08-11T01:59:14.430Z,5.00
2022-08-11T02:02:48.461Z,4.90
2022-08-11T02:05:27.709Z,4.70
2022-08-11T02:08:09.857Z,4.60
2022-08-11T02:11:05.193Z,5.20
2022-08-11T02:13:41.645Z,4.70
2022-08-11T02:16:21.460Z,5.00
2022-08-11T02:19:16.489Z,5.10
2022-08-11T02:22:16.590Z,4.60
2022-08-11T02:24:56.251Z,5.00
2022-08-11T02:27:28.908Z,5.20
2022-08-11T02:32:55.326Z,4.60
2022-08-11T02:35:42.918Z,5.20
2022-08-11T02:38:21.881Z,5.10
2022-08-11T02:41:01.374Z,5.00
2022-08-11T02:43:41.627Z,5.50
2022-08-11T02:46:26.779Z,4.70
2022-08-11T02:49:27.246Z,5.20
2022-08-11T02:52:04.902Z,4.50
2022-08-11T02:54:44.514Z,4.90
2022-08-11T02:57:19.636Z,4.90
2022-08-11T02:59:54.662Z,5.20
2022-08-11T03:02:34.979Z,5.40
2022-08-11T03:05:17.464Z,4.80
2022-08-11T03:08:02.603Z,4.60
2022-08-11T03:10:38.873Z,5.20
2022-08-11T03:13:33.303Z,4.90
2022-08-11T03:16:37.553Z,5.30
2022-08-11T03:19:15.324Z,4.50
2022-08-11T03:22:03.213Z,4.90
2022-08-11T03:24:42.323Z,5.10
2022-08-11T03:27:21.231Z,5.00
2022-08-11T03:30:04.838Z,4.90
2022-08-11T03:32:38.621Z,5.00
2022-08-11T03:35:21.178Z,4.50
2022-08-11T03:41:02.300Z,4.40
2022-08-11T03:43:58.807Z,5.00
2022-08-11T03:46:45.238Z,4.50
2022-08-11T03:49:26.686Z,4.10
2022-08-11T03:52:01.617Z,4.20
2022-08-11T03:54:43.894Z,4.50
2022-08-11T03:57:37.797Z,4.30
2022-08-11T04:00:18.405Z,4.40
2022-08-11T04:03:31.009Z,4.40
2022-08-11T04:06:47.473Z,4.40
2022-08-11T04:09:52.411Z,4.60
2022-08-11T04:12:47.872Z,5.00
2022-08-11T04:16:12.517Z,4.50
2022-08-11T04:19:31.176Z,4.40
2022-08-11T04:22:16.374Z,4.30
2022-08-11T04:25:15.588Z,4.50
2022-08-11T04:28:00.756Z,4.40
2022-08-11T04:30:42.072Z,4.60
2022-08-11T04:33:41.331Z,5.10
2022-08-11T04:36:45.993Z,4.80
2022-08-11T04:39:23.075Z,4.20
2022-08-11T04:42:44.994Z,5.10
2022-08-11T04:45:39.530Z,4.50
2022-08-11T04:48:58.564Z,4.90
2022-08-11T04:52:02.125Z,4.80
2022-08-11T04:55:01.290Z,4.90
2022-08-11T04:58:04.911Z,4.80
2022-08-11T05:01:00.706Z,4.80
2022-08-11T05:04:06.602Z,4.60
2022-08-11T05:07:13.649Z,5.20
2022-08-11T05:10:06.053Z,4.60
2022-08-11T05:12:48.633Z,4.80
2022-08-11T05:15:44.724Z,5.20
2022-08-11T05:18:38.514Z,5.00
2022-08-11T05:21:30.765Z,4.70
2022-08-11T05:24:38.958Z,5.30
2022-08-11T05:27:30.298Z,4.50
2022-08-11T05:30:23.649Z,4.80
2022-08-11T05:33:18.131Z,4.60
2022-08-11T05:36:01.502Z,4.80
2022-08-11T05:38:54.496Z,4.70
2022-08-11T05:41:46.643Z,4.60
2022-08-11T05:44:40.434Z,4.40
2022-08-11T05:47:29.543Z,5.00
2022-08-11T05:50:18.283Z,4.90
2022-08-11T05:53:20.554Z,4.60
2022-08-11T05:56:11.307Z,4.70
2022-08-11T06:04:35.455Z,4.50
2022-08-11T06:07:09.252Z,4.30
2022-08-11T06:09:41.425Z,4.20
2022-08-11T06:14:49.388Z,4.50
2022-08-11T06:17:24.865Z,4.70
2022-08-11T06:20:07.090Z,4.40
2022-08-11T06:22:38.477Z,4.70
2022-08-11T06:25:10.980Z,4.50
2022-08-11T06:27:44.096Z,4.60
2022-08-11T06:30:15.370Z,4.30
2022-08-11T06:32:46.987Z,4.60
2022-08-11T06:35:23.479Z,4.30
2022-08-11T06:38:06.486Z,4.90
2022-08-11T06:40:43.201Z,4.30
2022-08-11T06:43:19.816Z,4.80
2022-08-11T06:46:03.044Z,4.50
2022-08-11T06:48:34.841Z,4.10
2022-08-11T06:51:14.799Z,4.20
2022-08-11T06:54:03.196Z,4.50
2022-08-11T06:57:06.681Z,3.90
2022-08-11T07:00:02.652Z,4.40
2022-08-11T07:02:35.534Z,4.30
2022-08-11T07:05:11.769Z,4.60
2022-08-11T07:08:45.410Z,4.50
2022-08-11T07:12:03.096Z,4.30
2022-08-11T07:14:51.619Z,4.40
2022-08-11T07:17:26.350Z,4.40
2022-08-11T07:20:16.991Z,4.20
2022-08-11T07:23:11.397Z,4.20
2022-08-11T07:26:01.651Z,4.20
2022-08-11T07:28:50.388Z,4.00
2022-08-11T07:31:25.778Z,4.40
2022-08-11T07:34:07.888Z,4.60
2022-08-11T07:36:43.332Z,4.00
2022-08-11T07:39:18.563Z,4.20
2022-08-11T07:41:49.418Z,4.20
2022-08-11T07:44:20.158Z,4.00
2022-08-11T07:47:09.468Z,4.00
2022-08-11T07:49:58.626Z,4.50
2022-08-11T07:52:34.021Z,4.40
2022-08-11T07:55:06.211Z,4.10
2022-08-11T07:58:14.252Z,3.90
2022-08-11T08:01:09.911Z,4.50
2022-08-11T08:03:59.200Z,4.00
2022-08-11T08:06:48.029Z,4.10
2022-08-11T08:09:37.794Z,4.20
2022-08-11T08:12:27.841Z,4.60
2022-08-11T08:15:16.367Z,4.10
2022-08-11T08:18:09.216Z,4.40
2022-08-11T08:20:49.695Z,4.30
2022-08-11T08:23:32.981Z,3.90
2022-08-11T08:26:05.404Z,4.30
2022-08-11T08:31:04.756Z,4.50
2022-08-11T08:33:35.283Z,4.30
2022-08-11T08:36:15.294Z,4.00
2022-08-11T08:38:49.985Z,4.80
2022-08-11T08:41:23.575Z,4.40
2022-08-11T08:43:59.886Z,4.70
2022-08-11T08:46:49.154Z,4.70
2022-08-11T08:49:21.092Z,4.20
2022-08-11T08:54:37.042Z,4.70
2022-08-11T08:57:09.692Z,4.40
2022-08-11T08:59:49.221Z,4.30
2022-08-11T09:02:34.017Z,4.50
2022-08-11T09:05:09.913Z,4.70
2022-08-11T09:07:41.305Z,4.50
2022-08-11T09:10:12.669Z,4.30
2022-08-11T09:12:44.386Z,4.80
2022-08-11T09:15:19.959Z,4.80
2022-08-11T09:17:53.209Z,5.00
2022-08-11T09:20:25.189Z,4.80
2022-08-11T09:24:07.442Z,5.10
2022-08-11T09:26:30.620Z,4.20
2022-08-11T09:29:02.828Z,4.20
2022-08-11T09:31:38.976Z,3.90
2022-08-11T09:34:10.490Z,4.20
2022-08-11T09:37:28.302Z,4.20
2022-08-11T09:40:23.388Z,4.40
2022-08-11T09:43:15.967Z,4.20
2022-08-11T09:45:51.290Z,4.00
2022-08-11T09:48:22.403Z,4.20
2022-08-11T09:50:54.171Z,4.10
2022-08-11T09:56:28.331Z,4.10
2022-08-11T09:58:59.028Z,3.90
2022-08-11T10:01:33.438Z,4.30
2022-08-11T10:04:07.031Z,4.30
2022-08-11T10:06:56.348Z,4.30
2022-08-11T10:09:27.468Z,4.20
2022-08-11T10:11:59.739Z,4.20
2022-08-11T10:14:49.671Z,4.20
2022-08-11T10:17:23.036Z,4.30
2022-08-11T10:20:05.263Z,4.40
2022-08-11T10:22:54.622Z,4.10
2022-08-11T10:25:42.946Z,3.90
2022-08-11T10:28:28.306Z,3.90
2022-08-11T10:31:21.323Z,4.20
2022-08-11T10:34:01.524Z,4.00
2022-08-11T10:36:34.069Z,4.30
2022-08-11T10:39:05.974Z,4.30
2022-08-11T10:42:06.401Z,4.10
2022-08-11T10:44:42.500Z,4.20
2022-08-11T10:47:32.146Z,4.80
2022-08-11T10:50:20.372Z,4.20
2022-08-11T10:53:09.231Z,4.30
2022-08-11T10:55:58.727Z,4.80
2022-08-11T10:58:46.916Z,4.00
2022-08-11T11:01:19.806Z,3.90
2022-08-11T11:03:52.507Z,3.90
2022-08-11T11:06:28.811Z,4.10
2022-08-11T11:09:05.129Z,3.60
2022-08-11T11:11:56.565Z,4.20
2022-08-11T11:14:49.805Z,4.60
2022-08-11T11:17:45.254Z,4.20
2022-08-11T11:20:35.900Z,4.60
2022-08-11T11:23:13.788Z,3.90
2022-08-11T11:26:07.304Z,4.50
2022-08-11T11:29:03.008Z,4.20
2022-08-11T11:31:42.966Z,4.00
2022-08-11T11:34:28.551Z,4.30
2022-08-11T11:37:01.963Z,4.10
2022-08-11T11:39:34.955Z,4.10
2022-08-11T11:42:08.557Z,3.90
2022-08-11T11:44:40.373Z,4.20
2022-08-11T11:47:11.631Z,4.40
2022-08-11T11:49:44.394Z,3.70
2022-08-11T11:52:19.677Z,4.10
2022-08-11T11:54:51.132Z,4.30
2022-08-11T11:57:42.023Z,4.20
2022-08-11T12:00:46.804Z,3.70
2022-08-11T12:03:17.927Z,3.90
2022-08-11T12:08:17.661Z,4.10
2022-08-11T12:10:49.443Z,3.70
2022-08-11T12:13:38.211Z,4.20
2022-08-11T12:16:34.930Z,3.60
2022-08-11T12:19:03.234Z,4.00
2022-08-11T12:21:33.693Z,3.90
2022-08-11T12:24:22.679Z,3.20
2022-08-11T12:27:18.158Z,3.90
2022-08-11T12:29:55.294Z,4.10
2022-08-11T12:32:27.939Z,3.80
2022-08-11T12:34:58.597Z,4.10
2022-08-11T12:37:31.965Z,3.80
2022-08-11T12:41:11.314Z,3.90
2022-08-11T12:43:38.084Z,4.10
2022-08-11T12:46:11.714Z,3.90
2022-08-11T12:49:04.648Z,4.10
2022-08-11T12:52:13.062Z,4.20
2022-08-11T12:54:51.489Z,4.10
2022-08-11T12:57:46.604Z,4.00
2022-08-11T13:00:35.931Z,4.20
2022-08-11T13:03:25.964Z,4.10
2022-08-11T13:05:58.367Z,3.90
2022-08-11T13:08:30.370Z,3.90
2022-08-11T13:11:19.648Z,4.10
2022-08-11T13:13:57.059Z,4.10
2022-08-11T13:16:30.731Z,4.50
2022-08-11T13:19:02.289Z,3.70
2022-08-11T13:21:33.497Z,3.80
2022-08-11T13:24:04.349Z,4.50
2022-08-11T13:26:48.499Z,4.30
2022-08-11T13:29:25.756Z,4.50
2022-08-11T13:31:58.654Z,4.30
2022-08-11T13:34:31.282Z,4.30
2022-08-11T13:37:05.084Z,4.40
2022-08-11T13:39:36.339Z,4.40
2022-08-11T13:42:08.216Z,4.00
2022-08-11T13:44:39.304Z,4.60
2022-08-11T13:47:13.359Z,3.90
2022-08-11T13:49:44.284Z,4.40
2022-08-11T13:52:16.816Z,4.10
2022-08-11T13:54:48.968Z,4.10
2022-08-11T13:58:08.177Z,4.10
2022-08-11T14:00:13.307Z,4.30
2022-08-11T14:02:58.626Z,4.40
2022-08-11T14:05:31.395Z,4.30
2022-08-11T14:08:06.069Z,4.20
2022-08-11T14:10:37.473Z,3.90
2022-08-11T14:13:41.608Z,3.90
2022-08-11T14:16:21.078Z,4.00
2022-08-11T14:18:55.186Z,4.50
2022-08-11T14:21:44.403Z,4.00
2022-08-11T14:24:15.439Z,4.50
2022-08-11T14:26:46.326Z,4.10
2022-08-11T14:32:01.718Z,4.30
2022-08-11T14:34:34.556Z,4.10
2022-08-11T14:37:07.126Z,4.10
2022-08-11T14:39:42.540Z,4.10
2022-08-11T14:42:32.593Z,4.50
2022-08-11T14:45:22.629Z,4.30
2022-08-11T14:47:56.138Z,4.30
2022-08-11T14:50:28.802Z,4.60
2022-08-11T14:53:01.415Z,4.50
2022-08-11T14:55:51.118Z,4.50
2022-08-11T14:58:24.337Z,4.40
2022-08-11T15:00:59.654Z,4.50
2022-08-11T15:03:35.393Z,4.30
2022-08-11T15:06:08.400Z,4.20
2022-08-11T15:08:57.355Z,4.30
2022-08-11T15:11:50.908Z,3.90
2022-08-11T15:14:37.379Z,4.00
2022-08-11T15:17:11.298Z,4.50
2022-08-11T15:20:05.399Z,4.10
2022-08-11T15:22:54.842Z,3.80
2022-08-11T15:25:27.320Z,4.20
2022-08-11T15:28:16.927Z,4.20
2022-08-11T15:31:06.541Z,3.70
2022-08-11T15:33:55.960Z,4.30
2022-08-11T15:36:46.033Z,4.70
2022-08-11T15:39:23.554Z,4.00
2022-08-11T15:42:17.074Z,4.40
2022-08-11T15:45:10.017Z,4.20
2022-08-11T15:47:47.688Z,4.80
2022-08-11T15:50:24.487Z,4.60
2022-08-11T15:52:59.460Z,4.20
2022-08-11T15:55:35.211Z,4.30
2022-08-11T16:05:46.084Z,4.20
2022-08-11T16:08:10.341Z,4.70
2022-08-11T16:10:44.981Z,4.70
2022-08-11T16:16:15.804Z,4.80
2022-08-11T16:18:53.766Z,4.30
2022-08-11T16:21:35.036Z,4.90
2022-08-11T16:24:08.953Z,4.20
2022-08-11T16:27:08.098Z,4.70
2022-08-11T16:29:46.442Z,4.50
2022-08-11T16:32:20.611Z,4.60
2022-08-11T16:35:14.060Z,4.60
2022-08-11T16:38:03.679Z,4.20
2022-08-11T16:40:34.910Z,4.60
2022-08-11T16:43:24.055Z,4.40
2022-08-11T16:46:24.839Z,4.70
2022-08-11T16:48:56.077Z,4.80
2022-08-11T16:51:26.882Z,4.70
2022-08-11T16:54:05.456Z,4.90
2022-08-11T16:56:40.149Z,5.00
2022-08-11T16:59:17.076Z,5.10
2022-08-11T17:01:54.431Z,4.90
2022-08-11T17:04:49.005Z,4.30
2022-08-11T17:07:50.370Z,5.00
2022-08-11T17:10:53.642Z,4.90
2022-08-11T17:13:34.972Z,4.90
2022-08-11T17:16:11.786Z,5.20
2022-08-11T17:18:49.496Z,5.10
2022-08-11T17:21:22.698Z,5.30
2022-08-11T17:23:56.400Z,5.00
2022-08-11T17:26:51.451Z,5.00
2022-08-11T17:29:24.811Z,4.90
2022-08-11T17:32:14.384Z,5.00
2022-08-11T17:35:05.065Z,5.20
2022-08-11T17:42:42.569Z,4.90
2022-08-11T17:45:37.913Z,5.10
2022-08-11T17:48:32.393Z,4.90
2022-08-11T17:55:09.336Z,5.20
2022-08-11T17:58:01.345Z,5.00
2022-08-11T18:00:32.259Z,4.90
2022-08-11T18:03:20.610Z,5.60
2022-08-11T18:05:51.734Z,4.90
2022-08-11T18:08:40.585Z,5.50
2022-08-11T18:12:06.811Z,5.10
2022-08-11T18:14:38.416Z,5.10
2022-08-11T18:17:26.154Z,5.30
2022-08-11T18:20:14.173Z,4.50
2022-08-11T18:23:04.573Z,5.00
2022-08-11T18:25:57.677Z,5.30
2022-08-11T18:28:48.187Z,5.00
2022-08-11T18:31:36.850Z,4.50
2022-08-11T18:34:29.501Z,4.70
2022-08-11T18:40:16.911Z,5.20
2022-08-11T18:43:07.099Z,4.80
2022-08-11T18:46:06.180Z,4.60
2022-08-11T18:48:56.426Z,4.90
2022-08-11T18:51:45.389Z,5.00
2022-08-11T18:54:33.879Z,4.70
2022-08-11T18:57:23.756Z,4.90
2022-08-11T19:00:12.418Z,4.70
2022-08-11T19:03:00.652Z,4.90
2022-08-11T19:06:35.699Z,4.50
2022-08-11T19:09:01.598Z,4.90
2022-08-11T19:11:50.178Z,4.70
2022-08-11T19:14:39.039Z,4.50
2022-08-11T19:17:44.281Z,4.90
2022-08-11T19:20:36.945Z,4.60
2022-08-11T19:23:27.014Z,4.90
2022-08-11T19:26:16.563Z,4.60
2022-08-11T19:29:06.927Z,4.80
2022-08-11T19:31:55.784Z,4.60
2022-08-11T19:34:45.627Z,4.90
2022-08-11T19:37:33.663Z,4.60
2022-08-11T19:40:33.118Z,4.30
2022-08-11T19:43:25.910Z,4.70
2022-08-11T19:46:17.355Z,4.50
2022-08-11T19:49:09.772Z,4.70
2022-08-11T19:51:58.660Z,4.40
2022-08-11T19:54:48.883Z,4.10
2022-08-11T19:57:40.150Z,4.10
2022-08-11T20:00:32.515Z,4.40
2022-08-11T20:03:23.832Z,4.30
2022-08-11T20:06:12.012Z,4.50
2022-08-11T20:09:01.727Z,4.20
2022-08-11T20:11:52.445Z,4.60
2022-08-11T20:14:41.449Z,4.10
2022-08-11T20:17:29.984Z,4.20
2022-08-11T20:20:19.837Z,4.10
2022-08-11T20:23:09.498Z,4.10
2022-08-11T20:26:08.683Z,4.10
2022-08-11T20:29:03.134Z,4.30
2022-08-11T20:31:51.742Z,4.30
2022-08-11T20:34:40.139Z,4.20
2022-08-11T20:37:28.313Z,4.20
2022-08-11T20:40:16.289Z,4.10
2022-08-11T20:43:16.738Z,4.00
2022-08-11T20:46:21.126Z,4.10
2022-08-11T20:49:10.442Z,4.50
2022-08-11T20:52:01.718Z,4.00
2022-08-11T20:54:54.500Z,3.90
2022-08-11T21:00:51.857Z,4.40
2022-08-11T21:03:45.211Z,4.60
2022-08-11T21:06:43.832Z,3.70
2022-08-11T21:09:58.700Z,4.20
2022-08-11T21:12:42.866Z,3.90
2022-08-11T21:15:47.048Z,4.10
2022-08-11T21:18:41.008Z,3.90
2022-08-11T21:21:32.177Z,4.00
2022-08-11T21:24:36.225Z,3.80
2022-08-11T21:27:27.850Z,4.50
2022-08-11T21:30:16.057Z,3.90
2022-08-11T21:33:04.923Z,4.30
2022-08-11T21:35:53.082Z,3.90
2022-08-11T21:38:41.029Z,3.80
2022-08-11T21:41:30.545Z,4.00
2022-08-11T21:44:19.193Z,3.80
2022-08-11T21:47:07.254Z,3.80
2022-08-11T21:49:55.772Z,3.80
2022-08-11T21:52:43.584Z,3.90
2022-08-11T21:55:32.213Z,3.90
2022-08-11T21:58:21.054Z,4.00
2022-08-11T22:01:08.971Z,3.80
2022-08-11T22:09:35.681Z,3.50
2022-08-11T22:12:30.024Z,3.90
2022-08-11T22:15:29.821Z,3.70
2022-08-11T22:18:17.705Z,3.60
2022-08-11T22:21:05.341Z,3.90
2022-08-11T22:23:56.925Z,4.10
2022-08-11T22:26:47.551Z,4.00
2022-08-11T22:29:50.897Z,3.90
2022-08-11T22:32:39.595Z,4.00
2022-08-11T22:35:28.892Z,3.80
2022-08-11T22:38:17.322Z,4.00
2022-08-11T22:41:05.709Z,3.80
2022-08-11T22:43:53.655Z,4.10
2022-08-11T22:46:41.865Z,4.30
2022-08-11T22:49:31.198Z,3.50
2022-08-11T22:52:40.433Z,3.90
2022-08-11T22:55:29.558Z,3.80
2022-08-11T22:58:17.843Z,3.90
2022-08-11T23:01:06.037Z,4.10
2022-08-11T23:03:54.229Z,3.70
2022-08-11T23:06:42.577Z,3.60
2022-08-11T23:09:30.377Z,4.10
2022-08-11T23:12:18.301Z,3.70
2022-08-11T23:15:07.028Z,3.70
2022-08-11T23:17:55.411Z,4.60
2022-08-11T23:20:45.346Z,4.30
2022-08-11T23:23:36.756Z,4.20
2022-08-11T23:26:25.452Z,4.20
2022-08-11T23:29:14.550Z,3.70
2022-08-11T23:32:03.088Z,4.00
2022-08-11T23:35:03.540Z,4.10
2022-08-11T23:37:53.264Z,3.40
2022-08-11T23:40:41.438Z,4.20
2022-08-11T23:43:39.108Z,3.80
2022-08-11T23:46:27.241Z,3.60
2022-08-11T23:49:17.675Z,3.60
2022-08-11T23:52:06.305Z,4.20
2022-08-11T23:54:55.570Z,3.70
2022-08-11T23:57:47.906Z,3.90
